createdAt,value
2022-12-18T00:00:13.466Z,981.12
2022-12-18T00:01:14.154Z,981.09
2022-12-18T00:02:13.917Z,981.13
2022-12-18T00:03:13.678Z,981.13
2022-12-18T00:04:13.774Z,981.14
2022-12-18T00:05:13.423Z,981.14
2022-12-18T00:06:13.377Z,981.24
2022-12-18T00:07:13.344Z,981.22
2022-12-18T00:08:13.352Z,981.19
2022-12-18T00:09:13.546Z,981.24
2022-12-18T00:10:15.263Z,981.26
2022-12-18T00:11:13.307Z,981.31
2022-12-18T00:13:13.334Z,981.36
2022-12-18T00:14:13.341Z,981.32
2022-12-18T00:15:13.230Z,981.31
2022-12-18T00:16:13.487Z,981.27
2022-12-18T00:17:13.228Z,981.30
2022-12-18T00:18:16.106Z,981.29
2022-12-18T00:19:14.146Z,981.29
2022-12-18T00:20:13.374Z,981.28
2022-12-18T00:21:14.175Z,981.29
2022-12-18T00:22:13.104Z,981.32
2022-12-18T00:23:13.974Z,981.34
2022-12-18T00:24:13.138Z,981.35
2022-12-18T00:25:13.082Z,981.33
2022-12-18T00:26:13.051Z,981.38
2022-12-18T00:27:13.096Z,981.33
2022-12-18T00:28:13.020Z,981.30
2022-12-18T00:29:13.049Z,981.27
2022-12-18T00:30:13.011Z,981.30
2022-12-18T00:31:13.082Z,981.30
2022-12-18T00:32:12.979Z,981.31
2022-12-18T00:33:13.040Z,981.34
2022-12-18T00:34:13.076Z,981.39
2022-12-18T00:35:13.502Z,981.42
2022-12-18T00:36:12.998Z,981.45
2022-12-18T00:37:18.273Z,981.47
2022-12-18T00:38:13.919Z,981.45
2022-12-18T00:39:13.051Z,981.52
2022-12-18T00:40:12.893Z,981.49
2022-12-18T00:41:12.901Z,981.55
2022-12-18T00:42:12.900Z,981.55
2022-12-18T00:43:12.840Z,981.56
2022-12-18T00:44:13.059Z,981.56
2022-12-18T00:45:13.413Z,981.51
2022-12-18T00:46:12.934Z,981.50
2022-12-18T00:47:12.851Z,981.51
2022-12-18T00:48:13.757Z,981.53
2022-12-18T00:49:12.756Z,981.52
2022-12-18T00:50:12.758Z,981.49
2022-12-18T00:51:12.756Z,981.51
2022-12-18T00:52:12.834Z,981.50
2022-12-18T00:53:13.752Z,981.49
2022-12-18T00:54:12.867Z,981.47
2022-12-18T00:55:12.738Z,981.44
2022-12-18T00:56:12.713Z,981.41
2022-12-18T00:57:12.676Z,981.45
2022-12-18T00:58:12.777Z,981.47
2022-12-18T00:59:12.898Z,981.48
2022-12-18T01:00:12.750Z,981.50
2022-12-18T01:01:13.746Z,981.53
2022-12-18T01:02:12.760Z,981.51
2022-12-18T01:03:13.746Z,981.48
2022-12-18T01:04:13.324Z,981.48
2022-12-18T01:05:12.580Z,981.48
2022-12-18T01:06:12.638Z,981.52
2022-12-18T01:07:12.535Z,981.56
2022-12-18T01:08:12.643Z,981.62
2022-12-18T01:09:14.113Z,981.65
2022-12-18T01:10:12.586Z,981.68
2022-12-18T01:11:12.503Z,981.72
2022-12-18T01:12:13.374Z,981.73
2022-12-18T01:13:13.261Z,981.80
2022-12-18T01:14:12.501Z,981.78
2022-12-18T01:15:12.600Z,981.77
2022-12-18T01:16:12.508Z,981.78
2022-12-18T01:17:12.437Z,981.74
2022-12-18T01:18:13.030Z,981.73
2022-12-18T01:19:12.421Z,981.73
2022-12-18T01:20:12.402Z,981.69
2022-12-18T01:21:12.403Z,981.65
2022-12-18T01:22:13.886Z,981.73
2022-12-18T01:23:12.385Z,981.77
2022-12-18T01:24:12.381Z,981.80
2022-12-18T01:25:12.334Z,981.78
2022-12-18T01:26:12.328Z,981.80
2022-12-18T01:27:12.339Z,981.79
2022-12-18T01:28:12.299Z,981.78
2022-12-18T01:29:12.334Z,981.77
2022-12-18T01:30:12.312Z,981.78
2022-12-18T01:31:12.302Z,981.79
2022-12-18T01:32:12.286Z,981.81
2022-12-18T01:33:12.229Z,981.84
2022-12-18T01:34:12.222Z,981.86
2022-12-18T01:35:12.183Z,981.89
2022-12-18T01:36:12.226Z,981.88
2022-12-18T01:37:12.157Z,981.91
2022-12-18T01:38:12.179Z,981.91
2022-12-18T01:39:12.192Z,981.91
2022-12-18T01:40:12.134Z,981.90
2022-12-18T01:41:12.116Z,981.91
2022-12-18T01:42:12.488Z,981.91
2022-12-18T01:43:12.082Z,981.92
2022-12-18T01:44:12.093Z,981.97
2022-12-18T01:45:12.208Z,981.94
2022-12-18T01:46:12.149Z,981.91
2022-12-18T01:47:12.828Z,981.94
2022-12-18T01:48:12.196Z,981.94
2022-12-18T01:49:12.028Z,981.94
2022-12-18T01:50:12.120Z,981.91
2022-12-18T01:51:12.738Z,981.84
2022-12-18T01:52:12.055Z,981.83
2022-12-18T01:53:11.988Z,981.87
2022-12-18T01:54:12.203Z,981.84
2022-12-18T01:55:11.975Z,981.85
2022-12-18T01:56:12.074Z,981.84
2022-12-18T01:57:11.924Z,981.86
2022-12-18T01:58:11.960Z,981.87
2022-12-18T01:59:11.884Z,981.90
2022-12-18T02:00:11.915Z,981.94
2022-12-18T02:01:11.898Z,981.95
2022-12-18T02:02:11.982Z,981.94
2022-12-18T02:03:11.890Z,981.93
2022-12-18T02:04:11.862Z,981.93
2022-12-18T02:05:11.909Z,981.93
2022-12-18T02:06:11.837Z,981.94
2022-12-18T02:07:11.784Z,981.92
2022-12-18T02:08:11.951Z,981.95
2022-12-18T02:09:11.777Z,981.96
2022-12-18T02:10:11.765Z,981.95
2022-12-18T02:11:12.444Z,981.94
2022-12-18T02:12:11.762Z,981.88
2022-12-18T02:13:11.733Z,981.92
2022-12-18T02:14:12.474Z,981.93
2022-12-18T02:15:11.684Z,981.89
2022-12-18T02:16:11.720Z,981.91
2022-12-18T02:17:11.651Z,981.89
2022-12-18T02:18:11.671Z,981.93
2022-12-18T02:19:11.658Z,981.86
2022-12-18T02:20:11.653Z,981.88
2022-12-18T02:21:11.614Z,981.88
2022-12-18T02:22:11.630Z,981.87
2022-12-18T02:23:11.588Z,981.85
2022-12-18T02:24:11.868Z,981.86
2022-12-18T02:25:12.029Z,981.87
2022-12-18T02:26:11.582Z,981.84
2022-12-18T02:27:11.537Z,981.84
2022-12-18T02:28:11.581Z,981.85
2022-12-18T02:29:11.534Z,981.88
2022-12-18T02:30:13.233Z,981.88
2022-12-18T02:31:11.542Z,981.84
2022-12-18T02:32:11.558Z,981.86
2022-12-18T02:33:11.451Z,981.86
2022-12-18T02:34:11.481Z,981.91
2022-12-18T02:35:11.439Z,981.93
2022-12-18T02:36:11.438Z,981.95
2022-12-18T02:37:11.591Z,981.94
2022-12-18T02:38:11.406Z,981.92
2022-12-18T02:39:11.394Z,981.86
2022-12-18T02:40:11.386Z,981.85
2022-12-18T02:41:11.500Z,981.87
2022-12-18T02:42:11.374Z,981.86
2022-12-18T02:43:11.437Z,981.88
2022-12-18T02:44:11.432Z,981.86
2022-12-18T02:45:18.399Z,981.89
2022-12-18T02:46:11.342Z,981.90
2022-12-18T02:47:11.337Z,981.89
2022-12-18T02:48:11.276Z,981.84
2022-12-18T02:49:11.284Z,981.88
2022-12-18T02:50:11.266Z,981.91
2022-12-18T02:51:11.273Z,981.93
2022-12-18T02:52:11.214Z,981.96
2022-12-18T02:53:11.243Z,981.96
2022-12-18T02:54:11.193Z,981.98
2022-12-18T02:55:11.201Z,981.95
2022-12-18T02:56:11.170Z,981.99
2022-12-18T02:57:11.201Z,981.97
2022-12-18T02:58:11.170Z,981.96
2022-12-18T02:59:11.160Z,982.02
2022-12-18T03:00:11.128Z,982.03
2022-12-18T03:01:11.215Z,982.02
2022-12-18T03:02:11.215Z,982.04
2022-12-18T03:03:11.168Z,982.04
2022-12-18T03:04:11.077Z,982.08
2022-12-18T03:05:11.094Z,982.08
2022-12-18T03:06:11.062Z,982.07
2022-12-18T03:07:11.094Z,982.10
2022-12-18T03:08:11.024Z,982.06
2022-12-18T03:09:11.032Z,982.08
2022-12-18T03:10:10.999Z,982.06
2022-12-18T03:11:11.001Z,982.07
2022-12-18T03:12:10.985Z,982.10
2022-12-18T03:13:11.028Z,982.09
2022-12-18T03:14:10.961Z,982.08
2022-12-18T03:15:15.943Z,982.10
2022-12-18T03:16:11.932Z,982.07
2022-12-18T03:17:10.967Z,982.10
2022-12-18T03:18:10.919Z,982.03
2022-12-18T03:19:10.946Z,981.98
2022-12-18T03:20:10.875Z,981.97
2022-12-18T03:21:10.894Z,981.98
2022-12-18T03:22:10.853Z,982.00
2022-12-18T03:23:10.895Z,982.00
2022-12-18T03:24:10.822Z,982.02
2022-12-18T03:25:10.839Z,982.06
2022-12-18T03:26:10.805Z,982.04
2022-12-18T03:27:10.818Z,982.06
2022-12-18T03:28:10.812Z,982.06
2022-12-18T03:29:10.793Z,982.02
2022-12-18T03:30:10.749Z,981.99
2022-12-18T03:31:10.809Z,982.03
2022-12-18T03:32:10.728Z,982.01
2022-12-18T03:33:10.769Z,981.99
2022-12-18T03:34:10.747Z,981.97
2022-12-18T03:35:10.720Z,981.98
2022-12-18T03:36:10.756Z,982.01
2022-12-18T03:37:10.703Z,982.03
2022-12-18T03:38:10.691Z,982.07
2022-12-18T03:39:10.661Z,982.03
2022-12-18T03:40:10.665Z,982.05
2022-12-18T03:41:10.631Z,982.00
2022-12-18T03:42:10.603Z,981.96
2022-12-18T03:43:10.631Z,982.01
2022-12-18T03:44:10.584Z,981.99
2022-12-18T03:45:10.649Z,982.01
2022-12-18T03:46:10.629Z,982.04
2022-12-18T03:47:10.561Z,982.05
2022-12-18T03:48:10.528Z,982.07
2022-12-18T03:49:10.538Z,982.10
2022-12-18T03:50:12.807Z,982.07
2022-12-18T03:51:10.540Z,982.12
2022-12-18T03:52:10.477Z,982.11
2022-12-18T03:53:10.484Z,982.10
2022-12-18T03:54:10.456Z,982.19
2022-12-18T03:55:10.473Z,982.19
2022-12-18T03:56:10.461Z,982.22
2022-12-18T03:57:10.467Z,982.25
2022-12-18T03:58:10.447Z,982.25
2022-12-18T03:59:10.446Z,982.22
2022-12-18T04:00:10.389Z,982.22
2022-12-18T04:01:10.452Z,982.21
2022-12-18T04:02:10.558Z,982.22
2022-12-18T04:03:10.434Z,982.28
2022-12-18T04:04:10.436Z,982.29
2022-12-18T04:05:10.338Z,982.31
2022-12-18T04:06:10.306Z,982.27
2022-12-18T04:07:10.326Z,982.25
2022-12-18T04:08:10.285Z,982.19
2022-12-18T04:09:10.285Z,982.19
2022-12-18T04:10:10.284Z,982.19
2022-12-18T04:11:10.273Z,982.23
2022-12-18T04:12:10.243Z,982.30
2022-12-18T04:13:10.291Z,982.36
2022-12-18T04:14:14.390Z,982.38
2022-12-18T04:15:11.221Z,982.38
2022-12-18T04:16:10.234Z,982.38
2022-12-18T04:17:10.212Z,982.43
2022-12-18T04:18:10.168Z,982.40
2022-12-18T04:19:10.197Z,982.42
2022-12-18T04:20:10.148Z,982.38
2022-12-18T04:21:10.165Z,982.43
2022-12-18T04:22:10.117Z,982.40
2022-12-18T04:23:10.125Z,982.42
2022-12-18T04:24:10.086Z,982.39
2022-12-18T04:25:10.135Z,982.32
2022-12-18T04:26:10.087Z,982.36
2022-12-18T04:27:10.082Z,982.37
2022-12-18T04:28:10.033Z,982.33
2022-12-18T04:29:10.093Z,982.35
2022-12-18T04:30:10.020Z,982.33
2022-12-18T04:31:10.064Z,982.37
2022-12-18T04:32:10.019Z,982.36
2022-12-18T04:33:10.022Z,982.33
2022-12-18T04:34:09.970Z,982.35
2022-12-18T04:35:09.999Z,982.46
2022-12-18T04:36:09.946Z,982.40
2022-12-18T04:37:09.946Z,982.45
2022-12-18T04:38:09.917Z,982.47
2022-12-18T04:39:09.935Z,982.54
2022-12-18T04:40:09.906Z,982.56
2022-12-18T04:41:09.934Z,982.56
2022-12-18T04:42:09.875Z,982.54
2022-12-18T04:43:09.968Z,982.52
2022-12-18T04:44:09.843Z,982.48
2022-12-18T04:45:09.864Z,982.49
2022-12-18T04:46:09.916Z,982.51
2022-12-18T04:47:09.852Z,982.49
2022-12-18T04:48:09.791Z,982.45
2022-12-18T04:49:09.823Z,982.51
2022-12-18T04:50:09.769Z,982.48
2022-12-18T04:51:09.809Z,982.48
2022-12-18T04:52:09.749Z,982.49
2022-12-18T04:53:09.761Z,982.47
2022-12-18T04:54:09.728Z,982.46
2022-12-18T04:55:09.717Z,982.52
2022-12-18T04:56:09.734Z,982.48
2022-12-18T04:57:09.685Z,982.52
2022-12-18T04:58:09.708Z,982.52
2022-12-18T04:59:09.656Z,982.52
2022-12-18T05:00:09.673Z,982.52
2022-12-18T05:01:09.644Z,982.55
2022-12-18T05:02:09.773Z,982.51
2022-12-18T05:03:09.612Z,982.55
2022-12-18T05:04:09.679Z,982.56
2022-12-18T05:05:09.579Z,982.63
2022-12-18T05:06:09.639Z,982.66
2022-12-18T05:07:09.558Z,982.62
2022-12-18T05:08:09.561Z,982.57
2022-12-18T05:09:09.538Z,982.57
2022-12-18T05:10:09.537Z,982.55
2022-12-18T05:11:09.513Z,982.63
2022-12-18T05:12:09.559Z,982.61
2022-12-18T05:13:09.484Z,982.62
2022-12-18T05:14:09.504Z,982.66
2022-12-18T05:15:09.453Z,982.66
2022-12-18T05:16:09.595Z,982.63
2022-12-18T05:17:09.442Z,982.63
2022-12-18T05:18:09.433Z,982.68
2022-12-18T05:19:09.411Z,982.62
2022-12-18T05:20:09.442Z,982.61
2022-12-18T05:21:09.419Z,982.56
2022-12-18T05:22:09.397Z,982.58
2022-12-18T05:23:09.360Z,982.62
2022-12-18T05:24:09.399Z,982.62
2022-12-18T05:25:09.337Z,982.63
2022-12-18T05:26:09.338Z,982.65
2022-12-18T05:27:09.336Z,982.66
2022-12-18T05:28:09.475Z,982.66
2022-12-18T05:29:09.284Z,982.68
2022-12-18T05:30:09.324Z,982.72
2022-12-18T05:31:09.291Z,982.71
2022-12-18T05:32:09.272Z,982.74
2022-12-18T05:33:09.270Z,982.76
2022-12-18T05:34:09.251Z,982.76
2022-12-18T05:35:09.214Z,982.76
2022-12-18T05:36:09.221Z,982.79
2022-12-18T05:37:09.193Z,982.80
2022-12-18T05:38:09.207Z,982.85
2022-12-18T05:39:09.187Z,982.81
2022-12-18T05:40:09.177Z,982.82
2022-12-18T05:41:09.139Z,982.84
2022-12-18T05:42:09.146Z,982.85
2022-12-18T05:43:09.145Z,982.84
2022-12-18T05:44:09.170Z,982.88
2022-12-18T05:45:09.095Z,982.86
2022-12-18T05:46:09.244Z,982.87
2022-12-18T05:47:09.081Z,982.85
2022-12-18T05:48:09.084Z,982.86
2022-12-18T05:49:09.063Z,982.87
2022-12-18T05:50:09.050Z,982.87
2022-12-18T05:51:09.020Z,982.82
2022-12-18T05:52:09.030Z,982.80
2022-12-18T05:53:08.998Z,982.83
2022-12-18T05:54:09.032Z,982.80
2022-12-18T05:55:08.970Z,982.87
2022-12-18T05:56:08.977Z,982.82
2022-12-18T05:57:08.956Z,982.80
2022-12-18T05:58:08.946Z,982.82
2022-12-18T05:59:08.925Z,982.86
2022-12-18T06:00:08.973Z,982.83
2022-12-18T06:01:08.893Z,982.81
2022-12-18T06:02:09.148Z,982.80
2022-12-18T06:03:08.992Z,982.80
2022-12-18T06:04:09.030Z,982.80
2022-12-18T06:05:08.846Z,982.78
2022-12-18T06:06:08.853Z,982.78
2022-12-18T06:07:08.824Z,982.82
2022-12-18T06:08:08.830Z,982.77
2022-12-18T06:09:08.798Z,982.75
2022-12-18T06:10:08.849Z,982.74
2022-12-18T06:11:08.768Z,982.72
2022-12-18T06:12:08.809Z,982.73
2022-12-18T06:13:08.744Z,982.77
2022-12-18T06:14:08.777Z,982.78
2022-12-18T06:15:08.715Z,982.79
2022-12-18T06:16:08.792Z,982.78
2022-12-18T06:17:08.724Z,982.79
2022-12-18T06:18:08.702Z,982.77
2022-12-18T06:19:08.673Z,982.80
2022-12-18T06:20:08.672Z,982.77
2022-12-18T06:21:08.642Z,982.77
2022-12-18T06:22:08.657Z,982.77
2022-12-18T06:23:08.653Z,982.81
2022-12-18T06:24:08.630Z,982.83
2022-12-18T06:25:08.610Z,982.81
2022-12-18T06:26:08.608Z,982.86
2022-12-18T06:27:08.597Z,982.87
2022-12-18T06:28:08.575Z,982.93
2022-12-18T06:29:08.576Z,982.89
2022-12-18T06:30:08.585Z,982.90
2022-12-18T06:31:08.590Z,982.89
2022-12-18T06:32:08.556Z,982.92
2022-12-18T06:33:08.505Z,982.94
2022-12-18T06:34:08.513Z,982.91
2022-12-18T06:35:08.492Z,982.93
2022-12-18T06:36:08.479Z,982.96
2022-12-18T06:37:08.422Z,982.95
2022-12-18T06:38:08.471Z,982.97
2022-12-18T06:39:08.442Z,982.99
2022-12-18T06:40:08.438Z,983.01
2022-12-18T06:41:08.350Z,983.03
2022-12-18T06:42:08.356Z,983.06
2022-12-18T06:43:08.398Z,983.07
2022-12-18T06:44:08.387Z,983.05
2022-12-18T06:45:08.346Z,983.08
2022-12-18T06:46:08.423Z,983.08
2022-12-18T06:47:08.325Z,983.08
2022-12-18T06:48:08.365Z,983.11
2022-12-18T06:49:08.283Z,983.12
2022-12-18T06:50:08.305Z,983.07
2022-12-18T06:51:08.342Z,983.14
2022-12-18T06:52:08.292Z,983.13
2022-12-18T06:53:08.280Z,983.21
2022-12-18T06:54:08.232Z,983.17
2022-12-18T06:55:08.231Z,983.12
2022-12-18T06:56:10.585Z,983.20
2022-12-18T06:57:08.149Z,983.22
2022-12-18T06:58:08.167Z,983.25
2022-12-18T06:59:08.150Z,983.29
2022-12-18T07:00:08.139Z,983.31
2022-12-18T07:01:08.217Z,983.29
2022-12-18T07:02:08.272Z,983.30
2022-12-18T07:03:08.140Z,983.28
2022-12-18T07:04:08.087Z,983.33
2022-12-18T07:05:10.958Z,983.27
2022-12-18T07:06:08.083Z,983.28
2022-12-18T07:07:08.038Z,983.26
2022-12-18T07:08:08.042Z,983.30
2022-12-18T07:09:08.011Z,983.28
2022-12-18T07:10:08.038Z,983.33
2022-12-18T07:11:07.982Z,983.31
2022-12-18T07:12:08.001Z,983.40
2022-12-18T07:13:07.949Z,983.39
2022-12-18T07:14:07.965Z,983.45
2022-12-18T07:15:07.931Z,983.45
2022-12-18T07:16:15.003Z,983.46
2022-12-18T07:17:08.987Z,983.45
2022-12-18T07:18:07.907Z,983.44
2022-12-18T07:19:07.908Z,983.46
2022-12-18T07:20:07.901Z,983.51
2022-12-18T07:21:07.875Z,983.47
2022-12-18T07:22:07.883Z,983.54
2022-12-18T07:23:07.834Z,983.50
2022-12-18T07:24:07.844Z,983.52
2022-12-18T07:25:07.831Z,983.57
2022-12-18T07:26:07.840Z,983.63
2022-12-18T07:27:08.054Z,983.60
2022-12-18T07:28:10.518Z,983.62
2022-12-18T07:29:08.750Z,983.64
2022-12-18T07:30:07.768Z,983.59
2022-12-18T07:31:07.737Z,983.62
2022-12-18T07:32:07.831Z,983.67
2022-12-18T07:33:07.726Z,983.66
2022-12-18T07:34:07.713Z,983.62
2022-12-18T07:35:07.753Z,983.61
2022-12-18T07:36:07.704Z,983.64
2022-12-18T07:37:07.665Z,983.65
2022-12-18T07:38:07.693Z,983.64
2022-12-18T07:39:07.854Z,983.66
2022-12-18T07:40:07.862Z,983.75
2022-12-18T07:41:07.623Z,983.75
2022-12-18T07:42:07.944Z,983.77
2022-12-18T07:43:07.595Z,983.80
2022-12-18T07:44:07.608Z,983.80
2022-12-18T07:45:07.561Z,983.80
2022-12-18T07:46:07.735Z,983.78
2022-12-18T07:47:11.814Z,983.72
2022-12-18T07:48:07.577Z,983.70
2022-12-18T07:49:07.526Z,983.67
2022-12-18T07:50:07.646Z,983.63
2022-12-18T07:51:07.487Z,983.65
2022-12-18T07:52:07.495Z,983.67
2022-12-18T07:53:07.462Z,983.70
2022-12-18T07:54:07.480Z,983.68
2022-12-18T07:55:07.661Z,983.68
2022-12-18T07:57:16.427Z,983.69
2022-12-18T07:58:08.451Z,983.72
2022-12-18T07:59:07.498Z,983.72
2022-12-18T08:00:07.400Z,983.71
2022-12-18T08:01:07.569Z,983.75
2022-12-18T08:02:07.462Z,983.70
2022-12-18T08:03:07.384Z,983.73
2022-12-18T08:04:07.347Z,983.74
2022-12-18T08:05:08.775Z,983.69
2022-12-18T08:06:07.617Z,983.74
2022-12-18T08:07:07.324Z,983.78
2022-12-18T08:08:07.320Z,983.80
2022-12-18T08:09:07.372Z,983.84
2022-12-18T08:10:07.726Z,983.83
2022-12-18T08:11:07.244Z,983.82
2022-12-18T08:12:07.472Z,983.89
2022-12-18T08:13:07.251Z,983.89
2022-12-18T08:14:07.241Z,983.86
2022-12-18T08:15:07.180Z,983.88
2022-12-18T08:16:07.269Z,983.86
2022-12-18T08:17:07.621Z,983.91
2022-12-18T08:18:12.720Z,983.88
2022-12-18T08:19:08.268Z,983.89
2022-12-18T08:20:07.539Z,983.86
2022-12-18T08:21:07.378Z,983.85
2022-12-18T08:22:07.235Z,983.86
2022-12-18T08:23:07.086Z,983.85
2022-12-18T08:24:07.734Z,983.88
2022-12-18T08:25:07.095Z,983.87
2022-12-18T08:26:07.082Z,983.89
2022-12-18T08:27:28.414Z,983.88
2022-12-18T08:28:08.082Z,983.88
2022-12-18T08:29:07.301Z,983.85
2022-12-18T08:30:07.034Z,983.88
2022-12-18T08:31:07.104Z,983.87
2022-12-18T08:32:07.045Z,983.82
2022-12-18T08:33:07.278Z,983.91
2022-12-18T08:34:07.118Z,983.86
2022-12-18T08:35:06.968Z,983.90
2022-12-18T08:36:06.949Z,983.91
2022-12-18T08:37:07.030Z,983.88
2022-12-18T08:38:06.944Z,983.88
2022-12-18T08:39:06.889Z,983.87
2022-12-18T08:40:07.032Z,983.88
2022-12-18T08:41:06.884Z,983.85
2022-12-18T08:42:10.238Z,983.81
2022-12-18T08:43:06.937Z,983.79
2022-12-18T08:44:06.863Z,983.80
2022-12-18T08:45:06.829Z,983.80
2022-12-18T08:46:13.973Z,983.80
2022-12-18T08:47:06.790Z,983.84
2022-12-18T08:48:06.808Z,983.91
2022-12-18T08:49:06.776Z,983.88
2022-12-18T08:50:06.815Z,983.95
2022-12-18T08:51:06.787Z,983.95
2022-12-18T08:52:06.795Z,983.98
2022-12-18T08:53:06.729Z,983.98
2022-12-18T08:54:06.869Z,983.90
2022-12-18T08:55:06.694Z,983.93
2022-12-18T08:56:06.724Z,983.95
2022-12-18T08:57:06.680Z,983.91
2022-12-18T08:58:06.932Z,983.90
2022-12-18T08:59:06.644Z,983.88
2022-12-18T09:00:06.654Z,983.94
2022-12-18T09:01:06.695Z,983.90
2022-12-18T09:02:06.860Z,983.90
2022-12-18T09:03:06.783Z,983.90
2022-12-18T09:04:07.393Z,983.94
2022-12-18T09:05:06.577Z,983.90
2022-12-18T09:06:06.618Z,983.90
2022-12-18T09:07:06.575Z,983.91
2022-12-18T09:08:06.568Z,983.90
2022-12-18T09:09:06.611Z,983.97
2022-12-18T09:10:06.504Z,983.92
2022-12-18T09:11:06.748Z,983.88
2022-12-18T09:12:06.495Z,983.90
2022-12-18T09:13:06.492Z,983.88
2022-12-18T09:14:06.561Z,983.86
2022-12-18T09:15:06.482Z,983.85
2022-12-18T09:16:06.433Z,983.84
2022-12-18T09:17:06.523Z,983.84
2022-12-18T09:18:06.399Z,983.86
2022-12-18T09:19:06.509Z,983.83
2022-12-18T09:20:06.379Z,983.84
2022-12-18T09:21:06.397Z,983.82
2022-12-18T09:22:06.360Z,983.79
2022-12-18T09:23:06.468Z,983.84
2022-12-18T09:24:08.960Z,983.77
2022-12-18T09:25:06.416Z,983.77
2022-12-18T09:26:07.094Z,983.77
2022-12-18T09:27:06.344Z,983.75
2022-12-18T09:28:06.329Z,983.76
2022-12-18T09:29:06.283Z,983.72
2022-12-18T09:30:07.506Z,983.69
2022-12-18T09:31:06.303Z,983.68
2022-12-18T09:32:06.270Z,983.70
2022-12-18T09:33:06.247Z,983.74
2022-12-18T09:34:06.240Z,983.73
2022-12-18T09:35:06.263Z,983.73
2022-12-18T09:36:06.207Z,983.72
2022-12-18T09:37:06.250Z,983.70
2022-12-18T09:38:06.176Z,983.71
2022-12-18T09:39:08.485Z,983.76
2022-12-18T09:40:06.167Z,983.78
2022-12-18T09:41:06.174Z,983.78
2022-12-18T09:42:06.120Z,983.80
2022-12-18T09:43:07.329Z,983.80
2022-12-18T09:44:06.123Z,983.81
2022-12-18T09:45:06.148Z,983.76
2022-12-18T09:46:06.094Z,983.80
2022-12-18T09:47:06.082Z,983.83
2022-12-18T09:48:06.028Z,983.82
2022-12-18T09:49:06.102Z,983.79
2022-12-18T09:50:06.169Z,983.80
2022-12-18T09:51:06.212Z,983.73
2022-12-18T09:52:05.990Z,983.74
2022-12-18T09:53:06.008Z,983.74
2022-12-18T09:54:05.998Z,983.71
2022-12-18T09:55:05.975Z,983.71
2022-12-18T09:56:06.262Z,983.73
2022-12-18T09:57:06.030Z,983.77
2022-12-18T09:58:05.900Z,983.74
2022-12-18T09:59:05.949Z,983.70
2022-12-18T10:00:05.935Z,983.77
2022-12-18T10:01:05.917Z,983.75
2022-12-18T10:02:05.941Z,983.74
2022-12-18T10:03:05.974Z,983.73
2022-12-18T10:04:05.884Z,983.76
2022-12-18T10:05:05.850Z,983.76
2022-12-18T10:06:05.838Z,983.77
2022-12-18T10:07:09.314Z,983.78
2022-12-18T10:08:05.769Z,983.80
2022-12-18T10:09:05.836Z,983.78
2022-12-18T10:10:05.779Z,983.76
2022-12-18T10:11:05.748Z,983.76
2022-12-18T10:12:05.726Z,983.72
2022-12-18T10:13:05.838Z,983.70
2022-12-18T10:14:05.729Z,983.75
2022-12-18T10:15:05.748Z,983.76
2022-12-18T10:16:05.723Z,983.80
2022-12-18T10:17:05.694Z,983.79
2022-12-18T10:18:05.691Z,983.84
2022-12-18T10:19:05.672Z,983.84
2022-12-18T10:20:05.610Z,983.87
2022-12-18T10:21:05.627Z,983.84
2022-12-18T10:22:05.663Z,983.86
2022-12-18T10:23:05.609Z,983.89
2022-12-18T10:24:05.598Z,983.84
2022-12-18T10:25:05.630Z,983.86
2022-12-18T10:26:05.547Z,983.82
2022-12-18T10:27:05.586Z,983.80
2022-12-18T10:28:05.529Z,983.81
2022-12-18T10:29:05.956Z,983.80
2022-12-18T10:30:05.535Z,983.75
2022-12-18T10:31:05.590Z,983.74
2022-12-18T10:32:05.494Z,983.74
2022-12-18T10:33:05.473Z,983.74
2022-12-18T10:34:05.493Z,983.79
2022-12-18T10:35:05.502Z,983.78
2022-12-18T10:36:05.566Z,983.78
2022-12-18T10:37:05.445Z,983.76
2022-12-18T10:38:05.410Z,983.78
2022-12-18T10:39:05.463Z,983.74
2022-12-18T10:40:05.408Z,983.75
2022-12-18T10:41:05.413Z,983.77
2022-12-18T10:42:05.338Z,983.79
2022-12-18T10:43:05.369Z,983.82
2022-12-18T10:44:05.307Z,983.82
2022-12-18T10:45:05.335Z,983.85
2022-12-18T10:46:05.325Z,983.89
2022-12-18T10:47:10.224Z,983.88
2022-12-18T10:48:06.264Z,983.94
2022-12-18T10:49:05.283Z,983.94
2022-12-18T10:50:05.232Z,983.93
2022-12-18T10:51:13.687Z,983.86
2022-12-18T10:52:06.230Z,983.90
2022-12-18T10:53:05.360Z,983.93
2022-12-18T10:54:06.433Z,983.93
2022-12-18T10:55:05.213Z,983.94
2022-12-18T10:56:05.162Z,983.88
2022-12-18T10:57:05.203Z,983.86
2022-12-18T10:58:05.159Z,983.86
2022-12-18T10:59:05.173Z,983.86
2022-12-18T11:00:05.145Z,983.78
2022-12-18T11:01:05.136Z,983.82
2022-12-18T11:02:05.149Z,983.78
2022-12-18T11:03:05.199Z,983.78
2022-12-18T11:04:05.144Z,983.71
2022-12-18T11:05:05.106Z,983.67
2022-12-18T11:06:05.072Z,983.66
2022-12-18T11:07:05.050Z,983.62
2022-12-18T11:08:05.023Z,983.70
2022-12-18T11:09:12.245Z,983.72
2022-12-18T11:10:06.006Z,983.80
2022-12-18T11:11:05.029Z,983.82
2022-12-18T11:12:05.936Z,983.82
2022-12-18T11:13:04.977Z,983.78
2022-12-18T11:14:04.952Z,983.78
2022-12-18T11:15:04.958Z,983.72
2022-12-18T11:16:04.932Z,983.74
2022-12-18T11:18:05.875Z,983.72
2022-12-18T11:19:04.896Z,983.79
2022-12-18T11:20:04.854Z,983.78
2022-12-18T11:21:04.877Z,983.73
2022-12-18T11:22:04.876Z,983.72
2022-12-18T11:23:04.873Z,983.67
2022-12-18T11:24:04.802Z,983.61
2022-12-18T11:26:05.810Z,983.58
2022-12-18T11:27:04.789Z,983.61
2022-12-18T11:28:04.800Z,983.64
2022-12-18T11:29:04.788Z,983.64
2022-12-18T11:30:04.749Z,983.64
2022-12-18T11:31:04.781Z,983.60
2022-12-18T11:32:04.725Z,983.58
2022-12-18T11:33:05.680Z,983.58
2022-12-18T11:34:28.226Z,983.58
2022-12-18T11:35:05.697Z,983.58
2022-12-18T11:36:04.699Z,983.60
2022-12-18T11:37:04.664Z,983.53
2022-12-18T11:38:04.629Z,983.52
2022-12-18T11:39:04.690Z,983.53
2022-12-18T11:40:04.599Z,983.58
2022-12-18T11:41:04.636Z,983.53
2022-12-18T11:42:04.580Z,983.52
2022-12-18T11:43:04.579Z,983.52
2022-12-18T11:44:04.569Z,983.47
2022-12-18T11:45:04.585Z,983.51
2022-12-18T11:46:04.601Z,983.54
2022-12-18T11:47:04.631Z,983.50
2022-12-18T11:48:04.596Z,983.48
2022-12-18T11:49:04.519Z,983.46
2022-12-18T11:50:04.503Z,983.44
2022-12-18T11:51:04.492Z,983.40
2022-12-18T11:52:04.446Z,983.42
2022-12-18T11:53:06.491Z,983.41
2022-12-18T11:54:04.432Z,983.46
2022-12-18T11:55:04.461Z,983.44
2022-12-18T11:56:04.420Z,983.45
2022-12-18T11:57:04.418Z,983.41
2022-12-18T11:58:04.451Z,983.42
2022-12-18T11:59:04.391Z,983.39
2022-12-18T12:00:04.430Z,983.32
2022-12-18T12:01:04.392Z,983.32
2022-12-18T12:02:04.467Z,983.25
2022-12-18T12:03:04.476Z,983.23
2022-12-18T12:04:04.320Z,983.23
2022-12-18T12:05:04.324Z,983.21
2022-12-18T12:06:04.288Z,983.22
2022-12-18T12:07:04.302Z,983.17
2022-12-18T12:08:04.285Z,983.19
2022-12-18T12:09:04.251Z,983.19
2022-12-18T12:10:04.252Z,983.19
2022-12-18T12:11:04.264Z,983.19
2022-12-18T12:12:04.264Z,983.27
2022-12-18T12:13:04.203Z,983.24
2022-12-18T12:14:04.180Z,983.22
2022-12-18T12:15:04.199Z,983.21
2022-12-18T12:16:04.183Z,983.17
2022-12-18T12:17:04.220Z,983.18
2022-12-18T12:18:09.628Z,983.18
2022-12-18T12:19:05.144Z,983.22
2022-12-18T12:20:04.147Z,983.23
2022-12-18T12:21:04.140Z,983.24
2022-12-18T12:22:05.088Z,983.23
2022-12-18T12:23:04.075Z,983.28
2022-12-18T12:24:04.072Z,983.31
2022-12-18T12:25:04.063Z,983.29
2022-12-18T12:26:04.032Z,983.28
2022-12-18T12:27:04.022Z,983.34
2022-12-18T12:28:04.011Z,983.32
2022-12-18T12:29:04.030Z,983.32
2022-12-18T12:30:03.973Z,983.30
2022-12-18T12:31:04.053Z,983.26
2022-12-18T12:32:04.042Z,983.22